Time;durP1;ratioP1;P1;durP2;ratioP2;P2;SDS_P1;SDS_P2;PMS_P1;PMS_P2;Temp;Humidity;BMP_temperature;BMP_pressure;BME280_temperature;BME280_humidity;BME280_pressure;Samples;Min_cycle;Max_cycle;Signal;HPM_P1;HPM_P2
2022/10/06 00:00:47;;;;;;;3.30;2.13;;;16.00;97.30;;;;;;5091636;28;20177;-85
2022/10/06 00:03:14;;;;;;;1.20;1.10;;;16.00;97.30;;;;;;5078385;28;20502;-86
2022/10/06 00:05:39;;;;;;;1.57;1.47;;;16.00;97.30;;;;;;5082236;28;20478;-85
2022/10/06 00:08:05;;;;;;;1.97;1.90;;;15.90;97.30;;;;;;5076720;28;20722;-85
2022/10/06 00:10:32;;;;;;;2.20;1.40;;;15.90;97.30;;;;;;5095290;28;20197;-88
2022/10/06 00:12:58;;;;;;;1.70;1.63;;;15.80;97.30;;;;;;5079186;28;20412;-86
2022/10/06 00:15:29;;;;;;;2.70;1.87;;;15.80;97.30;;;;;;5079473;28;20481;-86
2022/10/06 00:17:56;;;;;;;1.60;1.50;;;15.80;97.30;;;;;;5086597;28;20961;-87
2022/10/06 00:20:23;;;;;;;1.20;1.10;;;15.70;97.30;;;;;;5097865;28;20431;-88
2022/10/06 00:22:49;;;;;;;3.10;2.20;;;15.70;97.30;;;;;;5084703;28;20469;-88
2022/10/06 00:25:17;;;;;;;1.87;1.70;;;15.70;97.30;;;;;;5097957;28;20435;-88
2022/10/06 00:27:48;;;;;;;1.70;1.60;;;15.70;97.30;;;;;;5096981;28;20432;-86
2022/10/06 00:30:17;;;;;;;4.40;2.10;;;15.70;97.30;;;;;;5097675;28;20455;-88
2022/10/06 00:32:53;;;;;;;2.40;1.00;;;15.60;97.30;;;;;;5090633;28;20438;-87
2022/10/06 00:35:20;;;;;;;1.10;1.00;;;15.60;97.30;;;;;;5097508;28;20430;-88
2022/10/06 00:37:45;;;;;;;1.50;1.37;;;15.60;97.30;;;;;;5090955;28;20839;-86
2022/10/06 00:40:11;;;;;;;1.60;1.53;;;15.50;97.30;;;;;;5090484;28;20506;-89
2022/10/06 00:42:55;;;;;;;1.70;1.60;;;15.50;97.30;;;;;;5115619;28;20273;-88
2022/10/06 00:45:43;;;;;;;4.60;1.77;;;15.40;97.30;;;;;;5097402;28;20292;-88
2022/10/06 00:48:17;;;;;;;1.43;1.33;;;15.30;97.30;;;;;;5115451;28;20557;-86
2022/10/06 00:50:44;;;;;;;1.80;1.60;;;15.30;97.30;;;;;;5097845;28;20463;-87
2022/10/06 00:53:10;;;;;;;1.70;1.60;;;15.20;97.30;;;;;;5097368;28;20768;-88
2022/10/06 00:55:36;;;;;;;1.60;1.50;;;15.20;97.30;;;;;;5097738;28;20510;-87
2022/10/06 00:58:03;;;;;;;3.90;1.90;;;15.20;97.30;;;;;;5097504;28;20596;-88
2022/10/06 01:00:29;;;;;;;2.43;2.23;;;15.20;97.30;;;;;;5090291;28;20190;-87
2022/10/06 01:03:00;;;;;;;2.23;2.10;;;15.20;97.30;;;;;;5077454;28;20420;-88
2022/10/06 01:05:32;;;;;;;1.43;1.37;;;15.20;97.30;;;;;;5115642;28;20419;-87
2022/10/06 01:07:58;;;;;;;1.33;1.27;;;15.20;97.30;;;;;;5097370;28;20528;-89
2022/10/06 01:10:23;;;;;;;1.87;1.80;;;15.20;97.30;;;;;;5115602;28;20451;-88
2022/10/06 01:12:50;;;;;;;2.73;1.57;;;15.10;97.30;;;;;;5102199;28;20497;-89
2022/10/06 01:15:16;;;;;;;1.87;1.53;;;15.10;97.30;;;;;;5111841;28;20190;-88
2022/10/06 01:17:51;;;;;;;1.50;1.50;;;15.10;97.30;;;;;;5123297;28;20458;-88
2022/10/06 01:20:18;;;;;;;1.10;1.10;;;15.10;97.30;;;;;;5106275;28;20632;-88
2022/10/06 01:22:47;;;;;;;2.90;1.80;;;15.00;97.30;;;;;;5094502;28;20427;-86
2022/10/06 01:25:15;;;;;;;2.40;1.10;;;15.00;97.30;;;;;;5088217;28;20447;-88
2022/10/06 01:27:44;;;;;;;2.83;1.53;;;15.00;97.30;;;;;;5082960;28;20431;-87
2022/10/06 01:30:14;;;;;;;2.57;2.40;;;15.00;97.30;;;;;;5096802;28;20447;-87
2022/10/06 01:32:40;;;;;;;1.80;1.70;;;15.00;97.30;;;;;;5096676;28;20449;-87
2022/10/06 01:35:07;;;;;;;2.17;1.77;;;15.10;97.30;;;;;;5114993;28;20447;-86
2022/10/06 01:37:33;;;;;;;1.97;1.70;;;15.10;97.30;;;;;;5114650;28;20409;-88
2022/10/06 01:39:59;;;;;;;1.73;1.63;;;15.10;97.30;;;;;;5096739;28;20501;-89
2022/10/06 01:42:24;;;;;;;1.50;1.30;;;15.10;97.30;;;;;;5096672;28;20177;-86
2022/10/06 01:44:50;;;;;;;3.10;1.53;;;15.10;97.30;;;;;;5095018;28;20587;-89
2022/10/06 01:47:15;;;;;;;1.77;1.67;;;15.00;97.30;;;;;;5084094;28;20231;-89
2022/10/06 01:49:41;;;;;;;4.00;2.20;;;15.00;97.30;;;;;;5097036;28;20177;-88
2022/10/06 01:52:07;;;;;;;2.87;1.60;;;14.90;97.30;;;;;;5097122;28;20534;-89
2022/10/06 01:54:32;;;;;;;1.93;1.57;;;14.90;97.30;;;;;;5089769;28;20175;-89
2022/10/06 01:56:58;;;;;;;1.50;1.23;;;14.90;97.30;;;;;;5090995;28;20182;-90
2022/10/06 01:59:23;;;;;;;1.73;1.70;;;14.80;97.30;;;;;;5097421;28;20240;-89
2022/10/06 02:01:49;;;;;;;1.20;1.17;;;14.80;97.30;;;;;;5097226;28;20177;-89
2022/10/06 02:04:15;;;;;;;3.53;3.33;;;14.80;97.30;;;;;;5096610;28;20177;-88
2022/10/06 02:06:41;;;;;;;2.03;1.67;;;14.80;97.30;;;;;;5115166;28;20416;-89
2022/10/06 02:09:06;;;;;;;3.37;1.43;;;14.80;97.30;;;;;;5097164;28;20202;-89
2022/10/06 02:11:32;;;;;;;1.90;1.70;;;14.80;97.30;;;;;;5096740;28;20190;-90
2022/10/06 02:14:00;;;;;;;1.93;1.40;;;14.80;97.30;;;;;;5096318;28;20178;-90
2022/10/06 02:16:26;;;;;;;2.17;1.40;;;14.80;97.30;;;;;;5096768;28;20269;-89
2022/10/06 02:18:53;;;;;;;1.80;1.60;;;14.90;97.30;;;;;;5096606;28;20512;-90
2022/10/06 02:21:21;;;;;;;1.20;0.97;;;14.90;97.30;;;;;;5114548;28;20921;-89
2022/10/06 02:23:47;;;;;;;2.03;1.53;;;14.90;97.30;;;;;;5096291;28;20420;-89
2022/10/06 02:26:16;;;;;;;3.60;2.20;;;15.00;97.30;;;;;;5096800;28;20420;-89
2022/10/06 02:28:43;;;;;;;1.63;1.30;;;15.00;97.30;;;;;;5096741;28;20965;-88
2022/10/06 02:31:09;;;;;;;2.53;1.10;;;15.00;97.30;;;;;;5095701;28;20447;-89
2022/10/06 02:33:37;;;;;;;3.33;3.07;;;15.00;97.30;;;;;;5095898;28;20415;-89
2022/10/06 02:36:03;;;;;;;1.77;1.33;;;15.00;97.30;;;;;;5096788;28;20510;-89
2022/10/06 02:38:31;;;;;;;3.40;2.27;;;15.00;97.30;;;;;;5096229;28;20962;-89
2022/10/06 02:41:00;;;;;;;2.13;2.00;;;15.10;97.30;;;;;;5096333;28;21100;-89
2022/10/06 02:43:30;;;;;;;1.70;1.30;;;15.10;97.30;;;;;;5095816;28;20422;-89
2022/10/06 02:45:58;;;;;;;1.43;1.30;;;15.10;97.30;;;;;;5083048;28;20424;-89
2022/10/06 02:48:24;;;;;;;1.57;1.50;;;15.10;97.30;;;;;;5096142;28;20436;-88
2022/10/06 02:50:58;;;;;;;1.83;1.73;;;15.10;97.30;;;;;;5100573;28;20443;-88
2022/10/06 02:53:24;;;;;;;1.50;1.43;;;15.10;97.30;;;;;;5096235;28;20827;-89
2022/10/06 02:55:56;;;;;;;1.93;1.50;;;15.20;97.30;;;;;;5114520;28;20464;-89
2022/10/06 02:58:21;;;;;;;1.47;1.40;;;15.20;97.30;;;;;;5095464;28;20523;-88
2022/10/06 03:00:47;;;;;;;1.97;1.87;;;15.20;97.30;;;;;;5114498;28;20492;-89
2022/10/06 03:03:12;;;;;;;2.30;1.33;;;15.20;97.30;;;;;;5082656;28;20182;-88
2022/10/06 03:05:38;;;;;;;1.67;1.20;;;15.20;97.30;;;;;;5087928;28;20179;-88
2022/10/06 03:08:03;;;;;;;1.73;1.63;;;15.20;97.30;;;;;;5090114;28;20217;-88
2022/10/06 03:10:29;;;;;;;1.77;1.43;;;15.20;97.30;;;;;;5096052;28;20259;-89
2022/10/06 03:12:54;;;;;;;1.93;1.40;;;15.30;97.30;;;;;;5095431;28;20177;-89
2022/10/06 03:15:20;;;;;;;1.70;1.60;;;15.30;97.30;;;;;;5095743;28;20182;-89
2022/10/06 03:17:49;;;;;;;4.30;1.80;;;15.30;97.30;;;;;;5095318;28;20240;-87
2022/10/06 03:20:14;;;;;;;1.87;1.60;;;15.40;97.30;;;;;;5095625;28;20196;-88
2022/10/06 03:22:40;;;;;;;1.33;1.23;;;15.40;97.30;;;;;;5095647;28;20487;-89
2022/10/06 03:25:06;;;;;;;2.30;1.70;;;15.40;97.30;;;;;;5095445;28;20182;-88
2022/10/06 03:27:32;;;;;;;8.83;1.50;;;15.50;97.30;;;;;;5095463;28;20189;-87
2022/10/06 03:29:57;;;;;;;1.30;1.20;;;15.50;97.30;;;;;;5095420;28;20416;-89
2022/10/06 03:32:23;;;;;;;2.53;1.87;;;15.50;97.30;;;;;;5094846;28;20667;-89
2022/10/06 03:34:49;;;;;;;1.43;1.27;;;15.60;97.30;;;;;;5087715;28;20179;-88
2022/10/06 03:37:14;;;;;;;2.03;1.53;;;15.60;97.30;;;;;;5088799;28;20178;-88
2022/10/06 03:39:40;;;;;;;3.40;2.03;;;15.60;97.30;;;;;;5083382;28;20246;-88
2022/10/06 03:42:06;;;;;;;4.77;2.13;;;15.70;97.30;;;;;;5094884;28;20226;-88
2022/10/06 03:44:33;;;;;;;2.00;1.63;;;15.70;97.30;;;;;;5098425;28;20314;-88
2022/10/06 03:46:59;;;;;;;0.87;0.83;;;15.70;97.30;;;;;;5098419;28;20635;-88
2022/10/06 03:49:25;;;;;;;1.07;1.03;;;15.80;97.30;;;;;;5098417;28;20442;-89
2022/10/06 03:51:52;;;;;;;1.17;1.13;;;15.80;97.30;;;;;;5098923;28;20241;-88
2022/10/06 03:54:17;;;;;;;3.40;1.43;;;15.80;97.30;;;;;;5116950;28;20227;-89
2022/10/06 03:56:43;;;;;;;1.57;1.17;;;15.80;97.30;;;;;;5098664;28;20419;-89
2022/10/06 03:59:11;;;;;;;1.93;1.57;;;15.90;97.30;;;;;;5098324;28;20201;-88
2022/10/06 04:01:45;;;;;;;1.50;1.40;;;15.90;97.30;;;;;;5084244;28;20186;-87
2022/10/06 04:04:10;;;;;;;2.40;1.63;;;15.90;97.30;;;;;;5115085;28;20403;-90
2022/10/06 04:06:39;;;;;;;1.30;1.27;;;16.00;97.30;;;;;;5125387;28;20464;-90
2022/10/06 04:09:06;;;;;;;1.10;1.00;;;16.00;97.30;;;;;;5121297;28;20205;-90
2022/10/06 04:11:36;;;;;;;1.70;1.50;;;16.00;97.30;;;;;;5105974;28;20462;-88
2022/10/06 04:14:05;;;;;;;2.53;2.13;;;16.00;97.30;;;;;;5091518;28;20407;-88
2022/10/06 04:16:34;;;;;;;1.00;0.90;;;16.00;97.30;;;;;;5087673;28;20910;-89
2022/10/06 04:19:02;;;;;;;7.07;1.83;;;16.00;97.30;;;;;;5114772;28;20463;-88
2022/10/06 04:21:29;;;;;;;2.40;1.77;;;16.00;97.30;;;;;;5096679;28;20503;-88
2022/10/06 04:23:56;;;;;;;1.00;1.00;;;16.00;97.30;;;;;;5089569;28;20420;-88
2022/10/06 04:26:24;;;;;;;1.60;1.33;;;16.00;97.30;;;;;;5089874;28;20415;-88
2022/10/06 04:28:49;;;;;;;3.23;1.47;;;16.00;97.30;;;;;;5092385;28;20496;-88
2022/10/06 04:31:21;;;;;;;2.13;1.70;;;16.00;97.30;;;;;;5092976;28;21042;-88
2022/10/06 04:33:50;;;;;;;1.90;1.80;;;16.10;97.30;;;;;;5096928;28;20315;-89
2022/10/06 04:36:24;;;;;;;1.10;1.00;;;16.10;97.30;;;;;;5089762;28;20437;-89
2022/10/06 04:38:52;;;;;;;0.90;0.80;;;16.00;97.30;;;;;;5112578;28;20431;-89
2022/10/06 04:41:19;;;;;;;1.07;0.97;;;15.90;97.30;;;;;;5091115;28;20424;-90
2022/10/06 04:43:45;;;;;;;1.57;1.33;;;15.80;97.30;;;;;;5093763;28;20510;-89
2022/10/06 04:46:11;;;;;;;0.90;0.80;;;15.70;97.30;;;;;;5090581;28;20418;-90
2022/10/06 04:48:37;;;;;;;0.90;0.80;;;15.60;97.30;;;;;;5106438;28;20496;-90
2022/10/06 04:51:05;;;;;;;1.03;0.90;;;15.50;97.30;;;;;;5097682;28;20482;-88
2022/10/06 04:53:31;;;;;;;1.00;0.90;;;15.50;97.30;;;;;;5092142;28;20265;-88
2022/10/06 04:56:05;;;;;;;1.23;0.90;;;15.40;97.30;;;;;;5109443;28;20450;-89
2022/10/06 04:58:36;;;;;;;1.03;0.97;;;15.40;97.30;;;;;;5087315;28;20436;-89
2022/10/06 05:01:18;;;;;;;0.93;0.83;;;15.30;97.30;;;;;;5091381;28;20420;-89
2022/10/06 05:03:45;;;;;;;0.90;0.80;;;15.30;97.30;;;;;;5093799;28;20423;-89
2022/10/06 05:06:13;;;;;;;0.80;0.80;;;15.30;97.30;;;;;;5094055;28;20421;-89
2022/10/06 05:08:39;;;;;;;1.00;0.90;;;15.20;97.30;;;;;;5093134;28;20531;-89
2022/10/06 05:11:10;;;;;;;0.70;0.70;;;15.20;97.30;;;;;;5092378;28;20821;-88
2022/10/06 05:13:37;;;;;;;0.80;0.80;;;15.20;97.30;;;;;;5087487;28;20657;-89
2022/10/06 05:16:05;;;;;;;0.90;0.80;;;15.20;97.30;;;;;;5090649;28;20423;-89
2022/10/06 05:18:32;;;;;;;0.83;0.80;;;15.20;97.30;;;;;;5087616;28;21076;-89
2022/10/06 05:21:05;;;;;;;0.70;0.70;;;15.20;97.30;;;;;;5090987;28;20447;-90
2022/10/06 05:23:33;;;;;;;1.10;1.00;;;15.10;97.30;;;;;;5110585;28;20797;-90
2022/10/06 05:25:59;;;;;;;1.00;0.90;;;15.10;97.30;;;;;;5094512;28;20820;-89
2022/10/06 05:28:26;;;;;;;1.00;0.90;;;15.10;97.30;;;;;;5115836;28;20458;-90
2022/10/06 05:30:58;;;;;;;1.40;1.30;;;15.10;97.30;;;;;;5115360;28;20197;-90
2022/10/06 05:33:25;;;;;;;0.93;0.87;;;15.00;97.30;;;;;;5116472;28;20776;-90
2022/10/06 05:35:56;;;;;;;1.40;1.13;;;15.00;97.30;;;;;;5102911;28;20473;-91
2022/10/06 05:38:21;;;;;;;1.57;1.27;;;14.90;97.30;;;;;;5091102;28;20518;-90
2022/10/06 05:40:48;;;;;;;1.00;0.90;;;14.80;97.30;;;;;;5123980;22;20443;-85
2022/10/06 05:43:13;;;;;;;1.00;0.90;;;14.80;97.30;;;;;;5093386;28;20558;-83
2022/10/06 05:45:39;;;;;;;0.77;0.73;;;14.80;97.30;;;;;;5092684;28;20508;-85
2022/10/06 05:48:04;;;;;;;0.80;0.80;;;14.80;97.30;;;;;;5082387;28;20177;-84
2022/10/06 05:50:30;;;;;;;1.43;1.33;;;14.70;97.30;;;;;;5086663;28;20194;-84
2022/10/06 05:52:56;;;;;;;1.23;1.13;;;14.70;97.30;;;;;;5074386;28;20258;-85
2022/10/06 05:55:22;;;;;;;1.00;0.90;;;14.60;97.30;;;;;;5074103;28;20637;-84
2022/10/06 05:57:47;;;;;;;1.00;0.90;;;14.60;97.30;;;;;;5071355;28;20202;-82
2022/10/06 06:00:13;;;;;;;0.90;0.90;;;14.60;97.30;;;;;;5073341;28;20178;-85
2022/10/06 06:02:38;;;;;;;0.87;0.83;;;14.60;97.30;;;;;;5074781;28;20202;-86
2022/10/06 06:05:04;;;;;;;0.90;0.83;;;14.60;97.30;;;;;;5074834;28;20269;-83
2022/10/06 06:07:29;;;;;;;1.00;0.90;;;14.60;97.30;;;;;;5074535;28;20179;-85
2022/10/06 06:09:55;;;;;;;1.00;0.90;;;14.60;97.30;;;;;;5074280;28;20191;-82
2022/10/06 06:12:20;;;;;;;1.10;1.00;;;14.60;97.30;;;;;;5093324;28;20202;-85
2022/10/06 06:17:31;;;;;;;0.90;0.80;;;14.60;97.30;;;;;;5092109;28;20691;-86
2022/10/06 06:19:57;;;;;;;1.20;1.10;;;14.50;97.30;;;;;;5062165;28;20429;-86
2022/10/06 06:22:22;;;;;;;1.33;0.90;;;14.50;97.30;;;;;;5065996;28;20503;-84
2022/10/06 06:24:48;;;;;;;1.17;1.07;;;14.50;97.30;;;;;;5070760;28;20693;-81
2022/10/06 06:27:14;;;;;;;1.03;0.93;;;14.40;97.30;;;;;;5066605;28;20677;-86
2022/10/06 06:29:40;;;;;;;0.80;0.80;;;14.40;97.30;;;;;;5068337;28;20657;-85
2022/10/06 06:32:08;;;;;;;1.00;0.90;;;14.40;97.30;;;;;;5065512;28;20475;-81
2022/10/06 06:34:34;;;;;;;1.77;1.67;;;14.40;97.30;;;;;;5066405;28;20174;-86
2022/10/06 06:37:00;;;;;;;0.80;0.70;;;14.30;97.30;;;;;;5067650;28;20420;-87
2022/10/06 06:39:26;;;;;;;0.93;0.87;;;14.40;97.30;;;;;;5066681;28;20332;-85
2022/10/06 06:41:52;;;;;;;1.30;0.90;;;14.40;97.30;;;;;;5063200;28;20989;-83
2022/10/06 06:44:19;;;;;;;0.90;0.80;;;14.40;97.30;;;;;;5075136;28;20179;-86
2022/10/06 06:46:47;;;;;;;0.83;0.80;;;14.40;97.30;;;;;;5079445;28;20439;-86
2022/10/06 06:49:13;;;;;;;0.90;0.80;;;14.40;97.30;;;;;;5061330;28;20799;-84
2022/10/06 06:51:41;;;;;;;1.00;0.90;;;14.40;97.30;;;;;;5064963;28;20463;-86
2022/10/06 06:54:08;;;;;;;1.10;1.00;;;14.50;97.30;;;;;;5068420;28;20174;-83
2022/10/06 06:56:34;;;;;;;0.90;0.80;;;14.50;97.30;;;;;;5086074;28;20428;-85
2022/10/06 06:59:10;;;;;;;0.90;0.80;;;14.50;97.30;;;;;;5064615;28;20425;-85
2022/10/06 07:01:38;;;;;;;0.90;0.80;;;14.60;97.30;;;;;;5068940;28;20765;-83
2022/10/06 07:04:04;;;;;;;1.00;0.90;;;14.60;97.30;;;;;;5068987;28;20482;-81
2022/10/06 07:06:31;;;;;;;1.57;1.30;;;14.60;97.30;;;;;;5070483;28;20942;-85
2022/10/06 07:08:58;;;;;;;1.00;0.90;;;14.60;97.30;;;;;;5060859;28;20428;-85
2022/10/06 07:11:30;;;;;;;1.00;0.90;;;14.60;97.30;;;;;;5081156;28;20457;-82
2022/10/06 07:14:00;;;;;;;0.90;0.80;;;14.60;97.30;;;;;;5061820;28;20709;-84
2022/10/06 07:27:29;;;;;;;0.93;0.87;;;14.70;97.30;;;;;;5082360;28;20419;-79
2022/10/06 07:29:55;;;;;;;1.30;1.20;;;14.70;97.30;;;;;;5068545;28;20422;-80
2022/10/06 07:32:21;;;;;;;1.00;0.90;;;14.70;97.30;;;;;;5073318;28;20508;-85
2022/10/06 07:34:48;;;;;;;1.10;1.00;;;14.70;97.30;;;;;;5072303;28;20487;-82
2022/10/06 07:37:13;;;;;;;1.57;1.33;;;14.80;97.30;;;;;;5072410;28;20408;-82
2022/10/06 07:39:39;;;;;;;2.03;1.07;;;14.90;97.30;;;;;;5065980;28;20430;-83
2022/10/06 07:42:14;;;;;;;0.93;0.90;;;15.00;97.30;;;;;;5068438;28;20226;-83
2022/10/06 07:45:36;;;;;;;1.00;0.90;;;15.10;97.30;;;;;;5067761;28;20429;-86
2022/10/06 07:47:31;;;;;;;0.90;0.90;;;15.20;97.30;;;;;;5090264;28;20412;-84
2022/10/06 07:49:57;;;;;;;1.20;1.10;;;15.30;97.30;;;;;;5066308;28;20857;-84
2022/10/06 07:52:23;;;;;;;0.93;0.87;;;15.30;97.30;;;;;;5083327;28;20441;-84
2022/10/06 07:54:49;;;;;;;1.10;1.00;;;15.40;97.30;;;;;;5070197;28;20444;-84
2022/10/06 07:57:15;;;;;;;1.97;1.63;;;15.40;97.30;;;;;;5070582;28;21026;-83
2022/10/06 07:59:40;;;;;;;1.40;1.30;;;15.40;97.30;;;;;;5071854;28;20452;-85
2022/10/06 08:02:06;;;;;;;1.00;0.90;;;15.50;97.30;;;;;;5072876;28;20202;-84
2022/10/06 08:04:31;;;;;;;24.13;1.30;;;15.50;97.30;;;;;;5075227;28;20186;-83
2022/10/06 08:06:57;;;;;;;0.93;0.83;;;15.60;97.30;;;;;;5070734;28;20193;-85
2022/10/06 08:09:23;;;;;;;0.80;0.80;;;15.60;97.30;;;;;;5061595;28;20182;-84
2022/10/06 08:11:48;;;;;;;1.13;1.03;;;15.70;97.30;;;;;;5075596;28;20210;-85
2022/10/06 08:14:14;;;;;;;0.97;0.90;;;15.80;97.20;;;;;;5070848;28;20181;-86
2022/10/06 08:16:40;;;;;;;1.10;1.00;;;15.80;96.70;;;;;;5066012;28;20181;-85
2022/10/06 08:19:05;;;;;;;1.00;0.90;;;15.90;97.00;;;;;;5067026;28;20204;-85
2022/10/06 08:21:35;;;;;;;0.77;0.73;;;15.90;97.30;;;;;;5070502;28;20206;-85
2022/10/06 08:24:00;;;;;;;6.30;0.90;;;16.00;96.90;;;;;;5071052;28;20191;-85
2022/10/06 08:26:27;;;;;;;1.17;0.80;;;16.00;96.80;;;;;;5066207;28;20429;-85
2022/10/06 08:29:01;;;;;;;0.90;0.80;;;16.00;96.50;;;;;;5087117;28;20805;-86
2022/10/06 08:31:28;;;;;;;1.80;1.50;;;16.00;95.80;;;;;;5070638;28;20512;-86
2022/10/06 08:33:55;;;;;;;3.87;2.40;;;16.10;96.50;;;;;;5075106;28;20514;-84
2022/10/06 08:36:23;;;;;;;1.07;1.03;;;16.20;96.50;;;;;;5065319;28;20409;-85
2022/10/06 08:38:49;;;;;;;3.03;1.97;;;16.30;95.80;;;;;;5093327;28;20488;-86
2022/10/06 08:41:33;;;;;;;15.13;1.07;;;16.30;96.10;;;;;;5061602;28;20547;-86
2022/10/06 08:44:06;;;;;;;1.43;1.33;;;16.40;95.80;;;;;;5065172;28;20186;-85
2022/10/06 08:46:39;;;;;;;1.60;1.40;;;16.40;95.40;;;;;;5078559;28;20934;-85
2022/10/06 08:49:10;;;;;;;1.00;0.90;;;16.50;94.60;;;;;;5062719;28;20433;-86
2022/10/06 08:52:05;;;;;;;1.07;1.00;;;16.50;93.80;;;;;;5068677;28;20837;-86
2022/10/06 08:54:46;;;;;;;1.00;1.00;;;16.50;94.00;;;;;;5061132;28;20923;-85
2022/10/06 08:57:26;;;;;;;0.80;0.70;;;16.60;94.00;;;;;;5066992;28;20430;-82
2022/10/06 08:59:52;;;;;;;1.10;1.00;;;16.70;93.60;;;;;;5071441;28;20946;-85
2022/10/06 09:02:37;;;;;;;0.80;0.80;;;16.70;92.90;;;;;;5069288;28;20447;-84
2022/10/06 09:05:05;;;;;;;1.00;0.90;;;16.70;93.50;;;;;;5065925;28;20201;-85
2022/10/06 09:07:39;;;;;;;1.60;1.57;;;16.80;94.10;;;;;;5065470;28;20418;-85
2022/10/06 09:10:23;;;;;;;1.00;0.90;;;16.90;93.40;;;;;;5064168;28;20476;-80
2022/10/06 09:13:01;;;;;;;1.13;1.03;;;17.00;92.70;;;;;;5069528;28;20437;-81
2022/10/06 09:15:32;;;;;;;0.77;0.73;;;17.00;91.90;;;;;;5062744;28;20481;-84
2022/10/06 09:18:18;;;;;;;10.17;1.00;;;17.00;91.40;;;;;;5086622;28;20459;-85
2022/10/06 09:21:00;;;;;;;0.80;0.80;;;17.10;90.70;;;;;;5065893;28;20597;-85
2022/10/06 09:23:48;;;;;;;2.50;1.33;;;17.20;90.80;;;;;;5071621;28;20998;-80
2022/10/06 09:26:17;;;;;;;1.00;0.90;;;17.20;89.90;;;;;;5080591;28;20424;-85
2022/10/06 09:28:45;;;;;;;1.30;0.97;;;17.20;89.90;;;;;;5065859;28;20843;-86
2022/10/06 09:31:36;;;;;;;2.93;1.53;;;17.30;90.20;;;;;;5058916;28;20463;-80
2022/10/06 09:34:34;;;;;;;1.60;1.50;;;17.30;89.90;;;;;;5083627;28;20444;-81
2022/10/06 09:37:03;;;;;;;1.37;1.27;;;17.30;89.30;;;;;;5084645;28;20895;-80
2022/10/06 09:39:35;;;;;;;1.00;0.90;;;17.20;89.40;;;;;;5065140;28;20446;-84
2022/10/06 09:42:34;;;;;;;1.13;1.07;;;17.20;88.50;;;;;;5081521;28;20464;-84
2022/10/06 09:45:04;;;;;;;1.10;1.00;;;17.30;87.70;;;;;;5070014;28;20524;-79
2022/10/06 09:47:45;;;;;;;0.80;0.80;;;17.40;87.70;;;;;;5072269;28;20866;-85
2022/10/06 09:50:19;;;;;;;1.07;0.93;;;17.50;87.50;;;;;;5068163;28;20421;-85
2022/10/06 09:53:10;;;;;;;1.33;1.33;;;17.50;87.00;;;;;;5074910;28;20449;-83
2022/10/06 09:55:35;;;;;;;1.00;0.90;;;17.50;87.30;;;;;;5074041;28;20456;-85
2022/10/06 09:58:02;;;;;;;1.13;1.03;;;17.50;86.30;;;;;;5090040;28;20449;-84
2022/10/06 10:00:34;;;;;;;1.10;1.10;;;17.60;87.80;;;;;;5080873;28;20243;-84
2022/10/06 10:03:03;;;;;;;1.10;1.00;;;17.70;86.90;;;;;;5075245;28;20995;-81
2022/10/06 10:05:34;;;;;;;3.13;1.20;;;17.80;87.30;;;;;;5067833;28;20976;-84
2022/10/06 10:08:12;;;;;;;1.53;1.07;;;17.90;86.70;;;;;;5062686;28;20433;-79
2022/10/06 10:10:39;;;;;;;1.20;1.03;;;17.80;85.90;;;;;;5067646;28;20461;-80
2022/10/06 10:13:28;;;;;;;4.50;1.23;;;17.70;86.70;;;;;;5079325;28;20486;-85
2022/10/06 10:16:01;;;;;;;1.10;1.00;;;17.60;86.70;;;;;;5092316;28;20452;-83
2022/10/06 10:18:30;;;;;;;1.03;0.97;;;17.80;87.00;;;;;;5072184;28;20963;-84
2022/10/06 10:21:05;;;;;;;1.47;1.10;;;17.90;87.00;;;;;;5074938;28;20946;-80
2022/10/06 10:23:54;;;;;;;5.07;1.23;;;18.00;86.90;;;;;;5075202;28;20530;-86
2022/10/06 10:26:53;;;;;;;1.13;1.03;;;18.20;86.80;;;;;;5088879;28;20416;-85
2022/10/06 10:29:50;;;;;;;1.30;1.20;;;18.30;85.80;;;;;;5083880;28;21070;-83
2022/10/06 10:32:30;;;;;;;1.00;0.90;;;18.50;86.70;;;;;;5079115;28;20465;-84
2022/10/06 10:34:58;;;;;;;3.50;1.00;;;18.60;86.10;;;;;;5073002;28;20442;-81
2022/10/06 10:37:45;;;;;;;1.53;1.20;;;18.70;85.60;;;;;;5069376;28;20815;-85
2022/10/06 10:40:28;;;;;;;1.00;0.90;;;18.60;85.50;;;;;;5087876;28;20412;-81
2022/10/06 10:43:06;;;;;;;1.10;1.00;;;18.70;85.70;;;;;;5066498;28;20460;-85
2022/10/06 10:45:42;;;;;;;0.90;0.80;;;18.80;85.80;;;;;;5059830;28;20844;-84
2022/10/06 10:48:50;;;;;;;1.00;0.90;;;18.80;85.70;;;;;;5066452;28;20925;-85
2022/10/06 10:51:49;;;;;;;1.77;1.40;;;18.80;85.10;;;;;;5070462;28;20452;-80
2022/10/06 10:54:27;;;;;;;1.30;1.20;;;18.70;84.90;;;;;;5085442;28;20460;-81
2022/10/06 10:56:53;;;;;;;1.00;0.90;;;18.80;84.10;;;;;;5072765;28;20416;-80
2022/10/06 10:59:43;;;;;;;3.30;1.70;;;18.90;84.40;;;;;;5055333;28;20409;-84
2022/10/06 11:02:12;;;;;;;5.93;2.00;;;19.00;84.70;;;;;;5063418;28;20217;-85
2022/10/06 11:04:56;;;;;;;1.20;1.10;;;19.10;82.70;;;;;;5059902;28;20433;-80
2022/10/06 11:07:52;;;;;;;1.23;1.13;;;19.20;83.60;;;;;;5063244;28;20431;-79
2022/10/06 11:10:25;;;;;;;0.90;0.80;;;19.40;83.50;;;;;;5074700;28;20775;-79
2022/10/06 11:13:13;;;;;;;0.87;0.80;;;19.50;82.40;;;;;;5060571;28;20494;-84
2022/10/06 11:15:53;;;;;;;1.00;0.90;;;19.60;82.20;;;;;;5087040;28;20409;-81
2022/10/06 11:18:37;;;;;;;1.50;1.20;;;19.60;81.70;;;;;;5070080;28;20477;-84
2022/10/06 11:21:23;;;;;;;3.53;1.30;;;19.70;82.30;;;;;;5069733;28;20443;-81
2022/10/06 11:24:24;;;;;;;1.07;0.97;;;19.70;81.30;;;;;;5067150;28;20432;-85
2022/10/06 11:27:11;;;;;;;1.00;0.90;;;19.70;82.30;;;;;;5053058;28;20795;-83
2022/10/06 11:30:03;;;;;;;1.07;1.03;;;19.80;81.50;;;;;;5065304;28;20428;-85
2022/10/06 11:33:02;;;;;;;1.00;0.90;;;19.80;81.70;;;;;;5065853;28;20484;-81
2022/10/06 11:35:34;;;;;;;1.00;0.90;;;19.80;80.80;;;;;;5063420;28;20421;-84
2022/10/06 11:38:14;;;;;;;1.63;1.20;;;19.70;80.90;;;;;;5067133;28;20926;-80
2022/10/06 11:40:50;;;;;;;1.10;1.00;;;19.60;81.70;;;;;;5063522;28;20410;-85
2022/10/06 11:43:54;;;;;;;0.87;0.80;;;19.50;80.70;;;;;;5125180;22;20460;-84
2022/10/06 11:46:36;;;;;;;1.43;1.00;;;19.50;80.50;;;;;;5085458;28;20477;-84
2022/10/06 11:49:30;;;;;;;1.00;0.90;;;19.60;80.20;;;;;;5086722;28;20412;-88
2022/10/06 11:52:16;;;;;;;1.27;1.17;;;19.70;79.60;;;;;;5098575;28;20686;-84
2022/10/06 11:54:48;;;;;;;1.10;1.10;;;19.80;80.20;;;;;;5048364;28;20460;-84
2022/10/06 11:57:27;;;;;;;0.90;0.80;;;20.00;79.90;;;;;;5096106;28;20408;-83
2022/10/06 11:59:57;;;;;;;3.07;1.20;;;20.20;79.30;;;;;;5077798;28;20423;-84
2022/10/06 12:02:29;;;;;;;1.50;1.40;;;20.40;78.10;;;;;;5076849;28;20504;-86
2022/10/06 12:05:18;;;;;;;0.93;0.83;;;20.40;77.70;;;;;;5098651;28;20467;-82
2022/10/06 12:07:58;;;;;;;1.27;1.17;;;20.50;77.90;;;;;;5099755;28;20465;-81
2022/10/06 12:10:27;;;;;;;1.17;1.03;;;20.50;77.80;;;;;;5080122;28;20412;-87
2022/10/06 12:13:18;;;;;;;3.13;1.10;;;20.50;76.80;;;;;;5080258;28;20421;-88
2022/10/06 12:16:05;;;;;;;1.10;1.00;;;20.50;76.80;;;;;;5079954;28;20413;-80
2022/10/06 12:18:57;;;;;;;1.13;1.03;;;20.60;77.10;;;;;;5081739;28;20910;-83
2022/10/06 12:21:42;;;;;;;0.83;0.80;;;20.70;76.30;;;;;;5061076;28;20409;-83
2022/10/06 12:24:33;;;;;;;2.17;1.00;;;20.80;76.60;;;;;;5098428;28;20499;-84
2022/10/06 12:27:30;;;;;;;1.93;1.07;;;20.70;75.60;;;;;;5095958;28;20916;-85
2022/10/06 12:30:02;;;;;;;1.20;1.10;;;20.80;76.40;;;;;;5074726;28;20443;-84
2022/10/06 12:32:45;;;;;;;0.90;0.80;;;20.90;75.70;;;;;;5090068;28;20536;-83
2022/10/06 12:35:35;;;;;;;1.00;0.93;;;21.00;74.50;;;;;;5077597;28;20424;-82
2022/10/06 12:38:25;;;;;;;1.30;1.20;;;21.00;74.20;;;;;;5083249;28;20928;-85
2022/10/06 12:40:54;;;;;;;1.53;1.03;;;21.10;73.90;;;;;;5059291;28;20494;-82
2022/10/06 12:43:25;;;;;;;1.20;1.10;;;21.10;72.90;;;;;;5076889;28;20501;-83
2022/10/06 12:46:15;;;;;;;1.83;1.10;;;21.00;72.90;;;;;;5068403;28;20429;-83
2022/10/06 12:49:00;;;;;;;4.83;1.03;;;20.90;73.20;;;;;;5085526;28;20400;-86
2022/10/06 12:51:33;;;;;;;6.13;1.20;;;21.00;74.00;;;;;;5072376;28;20465;-82
2022/10/06 12:54:14;;;;;;;1.43;1.00;;;21.00;74.40;;;;;;5073968;28;20531;-81
2022/10/06 12:56:41;;;;;;;1.00;0.90;;;21.00;73.90;;;;;;5082471;28;20484;-84
2022/10/06 12:59:34;;;;;;;1.30;1.20;;;21.00;74.40;;;;;;5075377;28;20466;-82
2022/10/06 13:02:08;;;;;;;1.00;0.90;;;21.20;74.70;;;;;;5076740;28;20416;-86
2022/10/06 13:04:40;;;;;;;1.20;1.10;;;21.40;73.60;;;;;;5076645;28;20432;-84
2022/10/06 13:07:19;;;;;;;1.63;1.53;;;21.50;73.40;;;;;;5076189;28;20441;-86
2022/10/06 13:09:47;;;;;;;0.97;0.90;;;21.50;72.40;;;;;;5075883;28;20507;-85
2022/10/06 13:12:24;;;;;;;3.33;1.27;;;21.50;72.60;;;;;;5089426;28;20994;-87
2022/10/06 13:15:22;;;;;;;0.70;0.70;;;21.50;72.50;;;;;;5065994;28;20476;-87
2022/10/06 13:17:53;;;;;;;2.03;1.10;;;21.30;73.10;;;;;;5067607;28;20449;-85
2022/10/06 13:20:38;;;;;;;1.00;0.90;;;21.30;73.60;;;;;;5068387;28;20936;-87
2022/10/06 13:23:23;;;;;;;1.07;0.97;;;21.40;73.90;;;;;;5085947;28;20403;-87